Time;durP1;ratioP1;P1;durP2;ratioP2;P2;SDS_P1;SDS_P2;PMS_P1;PMS_P2;Temp;Humidity;BMP_temperature;BMP_pressure;BME280_temperature;BME280_humidity;BME280_pressure;Samples;Min_cycle;Max_cycle;Signal;HPM_P1;HPM_P2
2022/06/03 00:00:16;;;;;;;5.13;4.55;;;19.30;62.20;;;;;;5016382;28;20022;-67
2022/06/03 00:02:50;;;;;;;;;;;19.30;62.30;;;;;;5016654;28;20076;-67
2022/06/03 00:05:40;;;;;;;6.15;4.80;;;19.30;62.30;;;;;;5016392;28;19909;-70
2022/06/03 00:08:40;;;;;;;6.60;5.07;;;19.20;62.30;;;;;;4998555;28;20033;-70
2022/06/03 00:11:05;;;;;;;5.82;5.20;;;19.20;62.50;;;;;;5015998;28;20172;-70
2022/06/03 00:14:04;;;;;;;7.53;4.75;;;19.20;63.10;;;;;;5016217;28;20538;-70
2022/06/03 00:16:52;;;;;;;5.85;4.45;;;19.20;62.80;;;;;;5016152;28;20030;-66
2022/06/03 00:19:32;;;;;;;5.95;4.80;;;19.20;62.80;;;;;;5016101;28;20026;-68
2022/06/03 00:22:12;;;;;;;5.68;4.22;;;19.10;62.70;;;;;;5015873;28;20049;-67
2022/06/03 00:24:55;;;;;;;7.75;5.03;;;19.10;63.00;;;;;;5015860;28;20068;-70
2022/06/03 00:27:33;;;;;;;8.38;5.03;;;19.10;63.00;;;;;;4998181;28;20410;-70
2022/06/03 00:30:22;;;;;;;7.63;5.15;;;19.10;62.90;;;;;;5015969;28;20034;-70
2022/06/03 00:33:26;;;;;;;5.13;4.60;;;19.10;63.20;;;;;;5015818;28;20085;-67
2022/06/03 00:36:12;;;;;;;6.32;5.72;;;19.00;63.20;;;;;;4928909;28;20044;-70
2022/06/03 00:38:56;;;;;;;5.65;4.72;;;19.10;63.20;;;;;;5015530;28;20030;-71
2022/06/03 00:41:40;;;;;;;6.30;4.82;;;19.00;63.40;;;;;;5015779;28;20042;-70
2022/06/03 00:44:17;;;;;;;7.85;5.18;;;19.00;63.30;;;;;;5015429;28;20068;-70
2022/06/03 00:47:16;;;;;;;5.85;5.13;;;18.90;63.40;;;;;;5015875;28;20471;-71
2022/06/03 00:50:12;;;;;;;7.03;4.63;;;19.00;63.60;;;;;;5007338;28;20402;-70
2022/06/03 00:53:02;;;;;;;5.35;4.82;;;18.90;63.50;;;;;;5014202;28;20029;-69
2022/06/03 00:56:20;;;;;;;6.07;4.95;;;18.90;63.60;;;;;;5015423;28;20022;-70
2022/06/03 00:58:59;;;;;;;4.88;4.40;;;18.90;63.90;;;;;;4992807;28;20494;-70
2022/06/03 01:01:24;;;;;;;6.85;4.88;;;18.90;63.80;;;;;;5015415;28;20048;-70
2022/06/03 01:04:11;;;;;;;5.32;4.78;;;18.90;63.80;;;;;;5014989;28;20038;-69
2022/06/03 01:06:58;;;;;;;7.95;4.75;;;18.90;64.00;;;;;;5015541;28;20021;-70
2022/06/03 01:09:49;;;;;;;4.90;4.38;;;18.80;64.00;;;;;;5015054;28;20034;-69
2022/06/03 01:12:33;;;;;;;5.57;4.90;;;18.80;64.10;;;;;;5014979;28;20034;-70
2022/06/03 01:15:10;;;;;;;5.75;5.00;;;18.80;64.00;;;;;;5015112;28;20518;-68
2022/06/03 01:17:48;;;;;;;8.35;5.57;;;18.80;64.20;;;;;;5015072;28;20494;-68
2022/06/03 01:20:45;;;;;;;6.45;4.88;;;18.80;64.20;;;;;;5014850;28;20022;-67
2022/06/03 01:23:29;;;;;;;5.20;4.70;;;18.70;64.40;;;;;;5009359;28;20133;-69
2022/06/03 01:26:16;;;;;;;5.47;4.97;;;18.80;64.50;;;;;;4997312;28;20370;-68
2022/06/03 01:29:00;;;;;;;8.90;5.20;;;18.70;64.40;;;;;;5014700;28;20022;-70
2022/06/03 01:31:34;;;;;;;7.25;5.28;;;18.60;64.70;;;;;;5014923;28;20692;-67
2022/06/03 01:34:03;;;;;;;6.93;5.28;;;18.60;64.70;;;;;;5014601;28;20030;-69
2022/06/03 01:36:37;;;;;;;5.72;5.07;;;18.70;64.70;;;;;;4996901;28;20033;-70
2022/06/03 01:39:11;;;;;;;6.20;4.68;;;18.60;64.70;;;;;;5014399;28;20030;-68
2022/06/03 01:42:10;;;;;;;6.45;5.60;;;18.60;64.70;;;;;;5014725;28;20030;-70
2022/06/03 01:44:55;;;;;;;7.47;5.75;;;18.60;64.70;;;;;;5014481;28;20165;-70
2022/06/03 01:47:30;;;;;;;6.75;5.28;;;18.60;64.70;;;;;;5014505;28;20033;-70
2022/06/03 01:50:43;;;;;;;7.05;5.35;;;18.60;64.80;;;;;;5014497;28;20059;-70
2022/06/03 01:53:26;;;;;;;;;;;18.50;65.00;;;;;;4911878;28;20485;-67
2022/06/03 01:56:13;;;;;;;5.28;4.38;;;18.50;64.80;;;;;;5014278;28;19911;-65
2022/06/03 01:58:58;;;;;;;5.97;5.30;;;18.60;64.80;;;;;;5014466;28;20076;-67
2022/06/03 02:01:45;;;;;;;9.10;5.18;;;18.60;64.90;;;;;;5013958;28;20026;-68
2022/06/03 02:04:10;;;;;;;6.10;5.50;;;18.50;65.00;;;;;;5013660;28;20088;-68
2022/06/03 02:06:57;;;;;;;6.57;4.90;;;18.50;65.10;;;;;;4996376;28;20033;-69
2022/06/03 02:09:41;;;;;;;9.27;5.25;;;18.50;65.20;;;;;;5014010;28;20026;-68
2022/06/03 02:12:12;;;;;;;6.25;5.38;;;18.30;65.50;;;;;;5013987;28;20018;-68
2022/06/03 02:14:59;;;;;;;7.38;5.15;;;18.40;65.50;;;;;;5014067;28;20037;-71
2022/06/03 02:17:33;;;;;;;7.22;5.05;;;18.40;65.40;;;;;;5013995;28;20033;-71
2022/06/03 02:20:24;;;;;;;6.18;4.93;;;18.40;65.40;;;;;;5013425;28;20030;-68
2022/06/03 02:23:27;;;;;;;7.50;5.25;;;18.50;65.50;;;;;;5013893;28;20033;-68
2022/06/03 02:26:14;;;;;;;6.57;5.18;;;18.40;65.70;;;;;;5013719;28;20034;-67
2022/06/03 02:28:45;;;;;;;5.90;5.30;;;18.40;65.60;;;;;;5013666;28;20036;-69
2022/06/03 02:31:19;;;;;;;8.80;5.87;;;18.40;65.80;;;;;;5013776;28;20471;-68
2022/06/03 02:34:02;;;;;;;6.75;5.40;;;18.30;65.90;;;;;;5013665;28;20022;-67
2022/06/03 02:37:21;;;;;;;9.48;5.57;;;18.30;66.10;;;;;;5013635;28;20108;-68
2022/06/03 02:40:08;;;;;;;10.60;5.40;;;18.30;66.10;;;;;;4959180;28;20128;-68
2022/06/03 02:42:58;;;;;;;6.57;5.57;;;18.30;66.20;;;;;;5013428;28;20037;-68
2022/06/03 02:45:36;;;;;;;6.32;5.53;;;18.30;66.30;;;;;;5013289;28;20512;-69
2022/06/03 02:48:39;;;;;;;6.82;5.35;;;18.30;66.90;;;;;;5013851;28;20037;-68
2022/06/03 02:51:31;;;;;;;9.85;5.72;;;18.20;66.70;;;;;;4995752;28;20487;-68
2022/06/03 02:54:20;;;;;;;7.05;5.70;;;18.20;66.80;;;;;;5013604;28;20096;-67
2022/06/03 02:56:47;;;;;;;9.05;6.07;;;18.20;67.70;;;;;;4995796;28;20029;-68
2022/06/03 02:59:36;;;;;;;6.93;5.72;;;18.20;67.00;;;;;;5013450;28;20045;-67
2022/06/03 03:02:30;;;;;;;9.80;5.80;;;18.20;67.10;;;;;;5013157;28;20454;-67
2022/06/03 03:05:14;;;;;;;10.35;6.78;;;18.20;67.20;;;;;;5013146;28;20502;-68
2022/06/03 03:08:07;;;;;;;7.28;6.55;;;18.20;67.40;;;;;;5013247;28;20076;-69
2022/06/03 03:10:50;;;;;;;6.88;6.05;;;18.20;67.40;;;;;;5013132;28;20061;-68
2022/06/03 03:13:54;;;;;;;7.82;6.15;;;18.20;67.40;;;;;;5013175;28;20084;-67
2022/06/03 03:17:04;;;;;;;8.32;5.97;;;18.20;67.60;;;;;;5017138;28;20030;-67
2022/06/03 03:19:56;;;;;;;12.18;6.65;;;18.20;67.70;;;;;;4991984;28;20048;-65
2022/06/03 03:22:44;;;;;;;6.72;5.80;;;18.00;68.50;;;;;;5006230;28;20101;-67
2022/06/03 03:25:22;;;;;;;8.43;6.35;;;17.90;68.60;;;;;;5017218;28;20490;-67
2022/06/03 03:28:12;;;;;;;14.07;6.47;;;17.90;68.80;;;;;;5017057;28;20049;-67
2022/06/03 03:31:03;;;;;;;7.00;6.10;;;17.80;69.00;;;;;;4999530;28;20030;-67
2022/06/03 03:34:00;;;;;;;7.57;6.78;;;17.80;69.10;;;;;;5016818;28;20045;-67
2022/06/03 03:36:31;;;;;;;6.95;6.25;;;17.70;69.20;;;;;;5016912;28;20030;-68
2022/06/03 03:39:31;;;;;;;7.65;6.63;;;17.80;69.20;;;;;;5017047;28;20030;-67
2022/06/03 03:42:21;;;;;;;8.63;6.75;;;17.80;69.30;;;;;;5016691;28;20467;-66
2022/06/03 03:45:23;;;;;;;8.60;6.95;;;17.70;69.40;;;;;;5016879;28;20030;-66
2022/06/03 03:48:03;;;;;;;8.18;6.70;;;17.80;69.50;;;;;;5016595;28;20026;-66
2022/06/03 03:50:44;;;;;;;7.57;6.55;;;17.70;69.60;;;;;;5016758;28;20034;-68
2022/06/03 03:53:33;;;;;;;8.93;6.70;;;17.70;69.60;;;;;;5008555;28;20022;-68
2022/06/03 03:56:27;;;;;;;7.80;6.75;;;17.60;69.80;;;;;;4996225;28;20041;-66
2022/06/03 03:59:23;;;;;;;9.63;6.43;;;17.70;69.90;;;;;;4995162;28;20118;-66
2022/06/03 04:02:01;;;;;;;9.80;7.13;;;17.70;70.10;;;;;;4996201;28;20054;-65
2022/06/03 04:04:57;;;;;;;7.32;6.65;;;17.70;70.00;;;;;;4979103;28;20045;-66
2022/06/03 04:08:09;;;;;;;7.95;6.75;;;17.60;70.10;;;;;;4996611;28;20037;-66
2022/06/03 04:11:02;;;;;;;7.47;6.60;;;17.60;70.50;;;;;;4996730;28;20113;-66
2022/06/03 04:14:12;;;;;;;9.43;7.05;;;17.60;70.50;;;;;;4996430;28;20026;-68
2022/06/03 04:16:52;;;;;;;9.10;7.40;;;17.50;70.70;;;;;;4996308;28;20089;-68
2022/06/03 04:19:49;;;;;;;9.40;7.13;;;17.60;70.50;;;;;;4996548;28;20022;-66
2022/06/03 04:22:23;;;;;;;10.30;6.55;;;17.70;70.60;;;;;;4994981;28;20034;-65
2022/06/03 04:25:01;;;;;;;9.10;6.90;;;17.70;70.40;;;;;;4996374;28;20033;-65
2022/06/03 04:28:04;;;;;;;10.23;7.47;;;17.70;70.60;;;;;;4996185;28;20476;-65
2022/06/03 04:30:38;;;;;;;8.40;7.43;;;17.70;70.50;;;;;;4996005;28;20034;-65
2022/06/03 04:33:03;;;;;;;10.00;8.23;;;17.70;70.50;;;;;;4996383;28;20431;-66
2022/06/03 04:36:06;;;;;;;9.10;7.80;;;17.80;70.40;;;;;;4996242;28;20034;-66
2022/06/03 04:39:06;;;;;;;11.27;8.00;;;17.70;70.50;;;;;;4994664;28;20034;-66
2022/06/03 04:42:01;;;;;;;9.35;7.50;;;17.70;70.60;;;;;;4995991;28;20069;-65
2022/06/03 04:44:55;;;;;;;8.18;7.20;;;17.60;71.00;;;;;;4978230;28;20046;-65
2022/06/03 04:47:45;;;;;;;10.82;8.23;;;17.70;70.90;;;;;;4994809;28;20486;-65
2022/06/03 04:50:13;;;;;;;11.75;7.35;;;17.70;71.00;;;;;;4996077;28;20026;-66
2022/06/03 04:53:26;;;;;;;9.10;8.20;;;17.70;71.20;;;;;;4995739;28;20099;-65
2022/06/03 04:56:33;;;;;;;10.52;7.68;;;17.70;71.10;;;;;;4994613;28;20042;-66
2022/06/03 04:59:25;;;;;;;9.27;7.85;;;17.70;71.30;;;;;;4994917;28;20086;-66
2022/06/03 05:01:57;;;;;;;12.32;7.43;;;17.70;71.60;;;;;;5006334;28;20033;-65
2022/06/03 05:04:47;;;;;;;11.98;7.55;;;17.70;71.50;;;;;;5015220;28;20073;-66
2022/06/03 05:07:27;;;;;;;8.73;7.93;;;17.70;71.40;;;;;;5015261;28;20079;-65
2022/06/03 05:10:02;;;;;;;12.00;7.80;;;17.70;71.40;;;;;;5015177;28;20034;-66
2022/06/03 05:13:01;;;;;;;9.65;7.20;;;17.70;71.70;;;;;;5014488;28;20029;-66
2022/06/03 05:15:26;;;;;;;8.18;7.05;;;17.60;71.70;;;;;;4995808;28;20029;-65
2022/06/03 05:18:28;;;;;;;9.10;7.90;;;17.60;72.00;;;;;;5012468;28;20235;-66
2022/06/03 05:21:32;;;;;;;9.20;7.75;;;17.60;72.10;;;;;;4995514;28;20045;-68
2022/06/03 05:24:18;;;;;;;10.15;7.82;;;17.70;72.10;;;;;;5013671;28;20091;-67
2022/06/03 05:27:00;;;;;;;9.57;7.20;;;17.70;72.10;;;;;;4956545;28;20064;-69
2022/06/03 05:30:09;;;;;;;9.48;7.22;;;17.80;71.80;;;;;;4996868;28;20030;-69
2022/06/03 05:32:40;;;;;;;10.25;7.65;;;17.80;71.60;;;;;;5013440;28;20029;-68
2022/06/03 05:35:09;;;;;;;11.95;7.60;;;17.80;72.10;;;;;;5014314;28;20025;-68
2022/06/03 05:37:43;;;;;;;7.97;7.18;;;17.90;72.20;;;;;;5008969;28;20041;-68
2022/06/03 05:40:33;;;;;;;9.25;7.28;;;17.90;72.00;;;;;;4995939;28;20043;-67
2022/06/03 05:43:17;;;;;;;8.32;7.47;;;18.10;71.60;;;;;;5007446;28;20030;-66
2022/06/03 05:46:00;;;;;;;8.38;7.32;;;18.20;71.50;;;;;;5014469;28;20052;-66
2022/06/03 05:48:49;;;;;;;11.20;6.60;;;18.30;71.60;;;;;;4996348;28;20029;-71
2022/06/03 05:52:01;;;;;;;12.55;6.57;;;18.40;71.00;;;;;;5014203;28;20026;-69
2022/06/03 05:54:41;;;;;;;7.47;6.67;;;18.50;70.00;;;;;;4974460;28;20116;-70
2022/06/03 05:57:27;;;;;;;9.75;6.55;;;18.60;70.50;;;;;;5003966;28;20074;-69
2022/06/03 06:00:34;;;;;;;7.22;6.45;;;18.60;70.60;;;;;;5001185;28;20100;-68
2022/06/03 06:03:25;;;;;;;7.35;6.72;;;18.80;69.70;;;;;;4945237;28;20049;-70
2022/06/03 06:06:08;;;;;;;13.07;6.82;;;18.80;69.50;;;;;;5004228;28;20030;-69
2022/06/03 06:09:11;;;;;;;7.63;5.68;;;18.90;69.60;;;;;;4998332;28;20022;-64
2022/06/03 06:11:55;;;;;;;6.78;6.07;;;18.90;69.50;;;;;;5008950;28;20033;-67
2022/06/03 06:14:41;;;;;;;8.07;5.03;;;19.00;69.10;;;;;;5009536;28;20030;-62
2022/06/03 06:17:32;;;;;;;9.85;5.97;;;19.00;69.60;;;;;;4996441;28;20023;-68
2022/06/03 06:20:26;;;;;;;6.43;5.82;;;19.10;69.50;;;;;;5006385;28;20022;-68
2022/06/03 06:22:59;;;;;;;6.40;5.55;;;19.20;69.30;;;;;;4962358;28;20042;-70
2022/06/03 06:25:37;;;;;;;8.52;6.20;;;19.30;69.40;;;;;;5013168;28;20026;-70
2022/06/03 06:28:04;;;;;;;6.78;5.90;;;19.40;69.00;;;;;;5006186;28;20056;-71
2022/06/03 06:30:35;;;;;;;8.73;6.20;;;19.40;68.90;;;;;;5002210;28;20026;-69
2022/06/03 06:33:10;;;;;;;7.82;5.43;;;19.50;68.50;;;;;;4998865;28;20388;-70
2022/06/03 06:36:07;;;;;;;7.20;5.32;;;19.60;68.40;;;;;;4999454;28;20022;-70
2022/06/03 06:38:44;;;;;;;8.48;5.10;;;19.60;68.40;;;;;;5011124;28;20394;-69
2022/06/03 06:41:41;;;;;;;6.32;5.63;;;19.60;68.50;;;;;;4998960;28;20061;-70
2022/06/03 06:44:14;;;;;;;6.78;5.47;;;19.80;67.90;;;;;;4919646;28;20446;-70
2022/06/03 06:46:45;;;;;;;;;;;19.80;68.40;;;;;;5007626;28;20026;-69
2022/06/03 06:49:49;;;;;;;9.30;5.78;;;19.80;68.20;;;;;;5000358;28;19909;-70
2022/06/03 06:52:43;;;;;;;6.72;4.78;;;19.90;68.10;;;;;;4929095;29;20393;-70
2022/06/03 06:55:23;;;;;;;7.40;4.40;;;20.00;67.80;;;;;;5007472;28;20068;-69
2022/06/03 06:57:52;;;;;;;5.25;4.75;;;20.10;67.60;;;;;;5003450;28;20030;-68
2022/06/03 07:00:28;;;;;;;7.95;3.60;;;20.00;67.90;;;;;;5007180;28;20018;-68
2022/06/03 07:03:17;;;;;;;7.60;4.80;;;20.10;68.10;;;;;;5008568;28;20045;-70
2022/06/03 07:06:06;;;;;;;6.95;5.32;;;20.10;67.70;;;;;;4953303;28;20046;-68
2022/06/03 07:08:42;;;;;;;8.68;5.10;;;20.30;67.10;;;;;;5005058;28;20105;-69
2022/06/03 07:11:25;;;;;;;4.57;4.18;;;20.40;67.40;;;;;;5009506;28;20037;-70
2022/06/03 07:14:06;;;;;;;7.60;4.75;;;20.50;66.80;;;;;;5012481;28;20026;-69
2022/06/03 07:20:17;;;;;;;5.80;4.97;;;20.70;65.90;;;;;;5012384;28;20506;-69
2022/06/03 07:23:06;;;;;;;7.53;5.00;;;20.80;65.40;;;;;;5008554;28;20109;-70
2022/06/03 07:25:46;;;;;;;7.50;5.35;;;20.90;65.20;;;;;;5012038;28;20081;-65
2022/06/03 07:28:40;;;;;;;5.25;4.60;;;20.90;65.30;;;;;;5012321;28;20036;-67
2022/06/03 07:31:24;;;;;;;7.57;4.30;;;21.00;65.00;;;;;;4993036;28;20502;-65
2022/06/03 07:33:59;;;;;;;4.35;3.95;;;21.00;65.30;;;;;;5010676;28;20072;-65
2022/06/03 07:36:42;;;;;;;11.57;4.90;;;21.10;65.50;;;;;;5002131;28;20030;-67
2022/06/03 07:39:26;;;;;;;8.98;5.30;;;21.10;65.20;;;;;;5001094;28;20029;-68
2022/06/03 07:42:14;;;;;;;9.20;5.13;;;21.20;65.10;;;;;;5007337;28;20034;-67
2022/06/03 07:44:55;;;;;;;7.32;4.43;;;21.30;64.50;;;;;;5000062;28;20050;-66
2022/06/03 07:47:24;;;;;;;4.90;4.45;;;21.40;64.90;;;;;;5012467;28;20066;-70
2022/06/03 07:50:00;;;;;;;7.22;5.22;;;21.30;65.10;;;;;;4975658;28;20033;-66
2022/06/03 07:52:51;;;;;;;5.25;4.53;;;21.50;64.10;;;;;;5010103;28;20033;-66
2022/06/03 07:55:23;;;;;;;6.93;3.70;;;21.60;64.00;;;;;;5010173;28;20018;-69
2022/06/03 07:57:56;;;;;;;8.48;3.30;;;21.50;64.30;;;;;;5012274;28;20029;-69
2022/06/03 08:00:22;;;;;;;8.35;3.90;;;21.50;64.30;;;;;;5012271;28;20026;-69
2022/06/03 08:03:01;;;;;;;12.57;4.50;;;21.50;64.40;;;;;;5016060;28;20499;-66
2022/06/03 08:05:27;;;;;;;5.28;4.07;;;21.60;64.40;;;;;;5015969;28;20214;-69
2022/06/03 08:10:58;;;;;;;4.75;4.20;;;21.70;65.10;;;;;;5014092;28;20053;-68
2022/06/03 08:13:43;;;;;;;5.70;3.83;;;21.80;64.00;;;;;;5016052;28;20076;-66
2022/06/03 08:16:29;;;;;;;7.85;3.63;;;21.70;64.40;;;;;;5016018;28;20053;-67
2022/06/03 08:19:18;;;;;;;5.72;3.70;;;21.80;64.40;;;;;;5015586;28;20071;-66
2022/06/03 08:21:49;;;;;;;8.77;4.63;;;21.90;63.90;;;;;;5014653;28;20063;-67
2022/06/03 08:24:20;;;;;;;8.05;3.97;;;21.90;63.80;;;;;;5011982;28;20037;-68
2022/06/03 08:26:52;;;;;;;4.47;3.95;;;22.00;64.00;;;;;;5015912;28;20026;-67
2022/06/03 08:29:48;;;;;;;7.45;4.05;;;22.00;63.40;;;;;;5015072;28;20033;-66
2022/06/03 08:32:26;;;;;;;5.28;4.75;;;22.10;63.00;;;;;;5015844;28;20455;-67
2022/06/03 08:34:54;;;;;;;7.30;3.63;;;22.10;62.80;;;;;;5013770;28;20410;-67
2022/06/03 08:37:34;;;;;;;7.53;3.70;;;22.10;63.00;;;;;;5010192;28;20062;-68
2022/06/03 08:40:09;;;;;;;8.45;3.53;;;22.10;63.20;;;;;;4996971;28;20130;-67
2022/06/03 08:42:42;;;;;;;6.63;3.42;;;22.10;62.70;;;;;;5028679;28;20441;-67
2022/06/03 08:45:25;;;;;;;5.30;3.38;;;22.20;62.30;;;;;;5015695;28;20026;-68
2022/06/03 08:47:56;;;;;;;5.43;3.25;;;22.20;62.60;;;;;;5015238;28;20034;-67
2022/06/03 08:50:41;;;;;;;9.70;3.55;;;22.20;63.10;;;;;;5015693;28;20026;-69
2022/06/03 08:53:44;;;;;;;8.88;3.60;;;22.40;63.20;;;;;;5021319;28;20026;-69
2022/06/03 08:56:20;;;;;;;7.47;4.03;;;22.40;62.70;;;;;;5012661;28;20025;-68
2022/06/03 08:58:54;;;;;;;6.78;3.67;;;22.30;62.60;;;;;;5009119;28;20394;-68
2022/06/03 09:01:25;;;;;;;7.95;3.50;;;22.40;62.90;;;;;;5010710;28;20081;-69
2022/06/03 09:04:22;;;;;;;6.90;4.30;;;22.40;62.00;;;;;;5003879;28;20038;-69
2022/06/03 09:07:20;;;;;;;4.93;3.78;;;22.50;62.80;;;;;;4978288;28;20315;-68
2022/06/03 09:10:18;;;;;;;6.00;2.40;;;22.60;62.20;;;;;;5014984;28;20087;-68
2022/06/03 09:13:05;;;;;;;6.45;4.00;;;22.40;61.30;;;;;;5010092;28;20110;-69
2022/06/03 09:15:37;;;;;;;6.35;4.35;;;22.30;60.80;;;;;;5003139;28;20117;-66
2022/06/03 09:18:13;;;;;;;9.60;3.80;;;22.20;61.10;;;;;;5014688;28;20021;-66
2022/06/03 09:20:56;;;;;;;8.40;2.40;;;22.20;61.30;;;;;;5012785;28;20022;-67
2022/06/03 09:23:24;;;;;;;7.70;3.50;;;22.20;62.60;;;;;;5006299;28;20045;-68
2022/06/03 09:25:52;;;;;;;4.07;2.30;;;22.20;63.00;;;;;;5014180;28;20018;-67
2022/06/03 09:28:31;;;;;;;5.72;1.65;;;22.20;59.60;;;;;;5014527;28;20072;-68
2022/06/03 09:31:00;;;;;;;3.42;2.30;;;22.20;62.50;;;;;;5014761;28;20022;-68
2022/06/03 09:33:27;;;;;;;4.45;2.28;;;22.30;62.00;;;;;;5014140;28;20084;-66
2022/06/03 09:35:56;;;;;;;3.10;2.40;;;22.30;61.40;;;;;;5013430;28;20076;-67
2022/06/03 09:38:25;;;;;;;3.10;2.70;;;22.30;61.50;;;;;;5014544;28;20030;-67
2022/06/03 09:40:55;;;;;;;4.45;2.45;;;22.30;60.20;;;;;;5013601;28;20033;-66
2022/06/03 09:43:31;;;;;;;4.72;2.70;;;22.40;60.60;;;;;;5013819;28;20049;-69
2022/06/03 09:45:59;;;;;;;3.53;2.50;;;22.40;60.40;;;;;;5013794;28;20487;-69
2022/06/03 09:48:32;;;;;;;4.93;2.50;;;22.40;62.10;;;;;;5012756;28;20110;-69
2022/06/03 09:51:19;;;;;;;5.68;2.33;;;22.50;60.50;;;;;;4996385;28;20057;-66
2022/06/03 09:53:46;;;;;;;5.40;2.33;;;22.60;59.50;;;;;;4997186;28;20108;-67
2022/06/03 09:56:39;;;;;;;2.97;2.40;;;22.40;60.40;;;;;;5014024;28;20065;-66
2022/06/03 09:59:05;;;;;;;7.28;2.50;;;22.50;61.40;;;;;;5010688;28;20045;-69
2022/06/03 10:01:31;;;;;;;2.90;2.00;;;22.50;58.80;;;;;;5013436;28;20113;-69
2022/06/03 10:04:00;;;;;;;6.10;2.58;;;22.60;58.70;;;;;;5013876;28;20113;-72
2022/06/03 10:15:37;;;;;;;4.30;2.03;;;22.50;55.30;;;;;;5012529;28;20413;-67
2022/06/03 10:17:34;;;;;;;2.60;2.22;;;22.50;56.90;;;;;;5013334;28;20095;-68
2022/06/03 10:20:00;;;;;;;4.13;1.90;;;22.60;56.40;;;;;;5013446;28;20040;-67
2022/06/03 10:22:26;;;;;;;1.67;0.90;;;22.50;57.50;;;;;;5013064;28;20030;-67
2022/06/03 10:24:55;;;;;;;5.07;1.98;;;22.60;60.70;;;;;;5013248;28;20121;-67
2022/06/03 10:27:21;;;;;;;2.88;1.38;;;22.70;55.70;;;;;;5007495;28;20391;-67
2022/06/03 10:29:50;;;;;;;2.90;1.48;;;22.80;54.80;;;;;;5009754;28;20034;-66
2022/06/03 10:32:20;;;;;;;1.75;1.40;;;22.50;53.40;;;;;;5009118;28;20026;-68
2022/06/03 10:34:47;;;;;;;7.82;1.27;;;22.50;54.20;;;;;;5012526;28;20479;-66
2022/06/03 10:37:18;;;;;;;7.55;1.17;;;22.60;54.20;;;;;;5024591;28;20028;-66
2022/06/03 10:39:44;;;;;;;3.17;1.40;;;22.70;56.70;;;;;;5033299;28;20041;-67
2022/06/03 10:42:18;;;;;;;1.95;1.10;;;22.80;53.60;;;;;;5026138;28;20026;-67
2022/06/03 10:44:50;;;;;;;3.75;0.77;;;22.80;55.70;;;;;;5012805;28;20490;-66
2022/06/03 10:47:19;;;;;;;4.20;1.70;;;22.80;57.20;;;;;;5008248;28;20080;-67
2022/06/03 10:49:55;;;;;;;3.20;1.40;;;22.80;56.40;;;;;;5003456;28;20105;-68
2022/06/03 11:01:06;;;;;;;1.52;0.68;;;22.90;53.50;;;;;;5012903;28;20032;-71
2022/06/03 11:03:33;;;;;;;6.75;1.20;;;22.90;56.10;;;;;;5009426;28;20038;-68
2022/06/03 11:06:16;;;;;;;3.40;1.08;;;23.00;55.70;;;;;;5001499;28;20149;-73
2022/06/03 11:08:50;;;;;;;1.50;0.60;;;23.10;53.50;;;;;;5002828;28;20034;-66
2022/06/03 11:11:37;;;;;;;2.03;0.77;;;23.20;53.30;;;;;;5011025;28;20056;-72
2022/06/03 11:14:24;;;;;;;3.70;0.95;;;23.10;50.40;;;;;;4992243;28;20030;-73
2022/06/03 11:16:58;;;;;;;1.00;0.75;;;23.10;51.50;;;;;;5003753;28;20386;-67
2022/06/03 11:19:24;;;;;;;1.52;0.90;;;23.10;51.90;;;;;;5011797;28;20044;-68
2022/06/03 11:22:18;;;;;;;3.40;0.85;;;23.10;51.20;;;;;;5010990;28;20469;-72
2022/06/03 11:25:02;;;;;;;3.08;0.73;;;23.10;55.60;;;;;;5002398;28;20066;-66
2022/06/03 11:27:55;;;;;;;2.97;1.48;;;23.30;50.70;;;;;;5006363;28;20083;-69
2022/06/03 11:30:55;;;;;;;1.40;1.02;;;23.30;51.90;;;;;;5002099;28;20022;-67
2022/06/03 11:33:29;;;;;;;1.63;0.77;;;23.20;52.20;;;;;;4979311;28;20049;-72
2022/06/03 11:36:05;;;;;;;2.45;1.10;;;23.30;56.00;;;;;;5004581;28;20072;-67
2022/06/03 11:38:43;;;;;;;2.50;1.20;;;23.20;51.40;;;;;;5013435;28;20037;-67
2022/06/03 11:41:19;;;;;;;1.30;1.20;;;23.30;51.70;;;;;;5015457;28;20041;-66
2022/06/03 11:43:57;;;;;;;3.45;1.10;;;23.40;51.40;;;;;;5016368;28;20109;-67
2022/06/03 11:46:34;;;;;;;3.13;0.80;;;23.40;50.20;;;;;;5017405;28;20034;-66
2022/06/03 11:49:00;;;;;;;3.13;1.33;;;23.30;50.50;;;;;;5035235;28;20056;-67
2022/06/03 11:51:26;;;;;;;1.90;0.60;;;23.40;49.80;;;;;;5022558;28;20068;-66
2022/06/03 11:53:53;;;;;;;1.15;0.50;;;23.30;50.40;;;;;;5001129;28;20049;-69
2022/06/03 11:56:25;;;;;;;0.80;0.40;;;23.40;51.80;;;;;;5006489;28;20104;-67
2022/06/03 11:59:15;;;;;;;1.10;0.50;;;23.40;48.10;;;;;;5008488;28;20112;-67
2022/06/03 12:01:56;;;;;;;3.25;0.57;;;23.40;52.60;;;;;;5006458;28;20021;-69
2022/06/03 12:04:37;;;;;;;1.40;0.60;;;23.50;48.60;;;;;;5020880;28;20065;-68
2022/06/03 12:07:45;;;;;;;2.95;0.70;;;23.60;52.50;;;;;;4997004;28;20036;-68
2022/06/03 12:10:40;;;;;;;4.53;1.13;;;23.50;55.80;;;;;;4981979;28;20060;-67
2022/06/03 12:13:27;;;;;;;2.72;0.60;;;23.50;56.50;;;;;;5007471;28;20471;-68
2022/06/03 12:15:58;;;;;;;2.50;0.60;;;23.50;56.60;;;;;;5009716;28;20466;-71
2022/06/03 12:18:32;;;;;;;3.10;0.80;;;23.40;54.40;;;;;;5005717;28;20035;-67
2022/06/03 12:21:01;;;;;;;1.52;0.50;;;23.40;48.50;;;;;;5014415;28;20022;-66
2022/06/03 12:23:26;;;;;;;0.60;0.40;;;23.60;46.40;;;;;;5014572;28;20058;-71
2022/06/03 12:25:53;;;;;;;2.65;0.70;;;23.50;46.10;;;;;;5012549;28;20057;-71
2022/06/03 12:28:45;;;;;;;0.75;0.40;;;23.50;54.40;;;;;;5013416;28;20091;-68
2022/06/03 12:31:23;;;;;;;1.67;0.43;;;23.50;46.00;;;;;;5009946;28;20029;-71
2022/06/03 12:34:11;;;;;;;1.52;0.50;;;23.50;48.70;;;;;;5012617;28;20026;-69
2022/06/03 12:36:39;;;;;;;1.60;0.55;;;23.50;46.40;;;;;;5006607;28;20106;-71
2022/06/03 12:39:07;;;;;;;2.88;0.50;;;23.60;46.30;;;;;;5014559;28;20551;-68
2022/06/03 12:41:44;;;;;;;3.20;0.30;;;23.70;44.70;;;;;;5015428;28;20034;-72
2022/06/03 12:44:43;;;;;;;2.88;0.52;;;23.70;46.40;;;;;;5014595;28;20030;-68
2022/06/03 12:47:35;;;;;;;1.45;0.57;;;23.70;54.60;;;;;;5012319;28;20459;-69
2022/06/03 12:50:04;;;;;;;1.75;0.65;;;23.70;47.10;;;;;;5008682;28;20049;-69
2022/06/03 12:52:29;;;;;;;2.35;0.57;;;23.60;48.60;;;;;;5015386;28;20471;-72
2022/06/03 12:55:19;;;;;;;1.85;0.50;;;23.70;54.40;;;;;;5010828;28;20109;-69
2022/06/03 12:58:25;;;;;;;1.38;0.60;;;23.60;54.00;;;;;;5009697;28;20048;-72
2022/06/03 13:00:57;;;;;;;1.33;0.52;;;23.70;47.90;;;;;;5009117;28;20109;-70
2022/06/03 13:03:22;;;;;;;3.05;0.90;;;23.80;50.40;;;;;;4998181;28;20034;-71
2022/06/03 13:05:51;;;;;;;1.67;0.57;;;23.70;48.70;;;;;;5006693;28;20029;-70
2022/06/03 13:08:28;;;;;;;2.63;0.68;;;23.70;54.80;;;;;;4995486;28;20033;-72
2022/06/03 13:10:59;;;;;;;1.33;0.60;;;23.70;52.70;;;;;;5011172;28;20026;-71
2022/06/03 13:13:32;;;;;;;1.57;0.67;;;23.70;54.10;;;;;;5004397;28;20053;-68
2022/06/03 13:16:19;;;;;;;2.72;0.73;;;23.70;54.80;;;;;;5000234;28;20270;-72
2022/06/03 13:18:50;;;;;;;1.63;0.63;;;23.50;54.90;;;;;;4998980;28;20379;-67
2022/06/03 13:21:18;;;;;;;1.00;0.35;;;23.60;47.80;;;;;;5010672;28;20029;-72
2022/06/03 13:23:45;;;;;;;2.28;0.95;;;23.60;52.50;;;;;;5007551;28;20038;-70
2022/06/03 13:26:23;;;;;;;4.03;0.63;;;23.70;51.80;;;;;;4999698;28;20471;-71
2022/06/03 13:28:59;;;;;;;1.60;0.65;;;23.70;52.20;;;;;;4982818;28;20443;-69
2022/06/03 13:31:40;;;;;;;2.03;1.00;;;23.70;49.90;;;;;;5010275;28;20022;-68
2022/06/03 13:34:08;;;;;;;6.13;1.10;;;23.70;48.20;;;;;;5014052;28;20099;-67
2022/06/03 13:36:51;;;;;;;2.58;0.75;;;23.80;48.00;;;;;;5014400;28;20022;-67
2022/06/03 13:39:23;;;;;;;1.73;0.90;;;23.80;50.50;;;;;;5013339;28;20498;-67
2022/06/03 13:44:43;;;;;;;7.15;1.40;;;23.90;49.00;;;;;;5013967;28;20145;-67
2022/06/03 13:47:22;;;;;;;4.43;1.35;;;23.90;47.90;;;;;;5014185;28;20604;-68
2022/06/03 13:49:53;;;;;;;1.83;0.90;;;23.90;48.80;;;;;;5013153;28;20026;-68
2022/06/03 13:52:43;;;;;;;2.40;1.38;;;24.00;49.00;;;;;;5014050;28;20022;-67
2022/06/03 13:55:25;;;;;;;1.95;1.30;;;24.00;47.60;;;;;;4996667;28;20038;-68
2022/06/03 13:57:55;;;;;;;;;;;24.00;47.90;;;;;;5013054;28;20033;-68
2022/06/03 14:00:51;;;;;;;1.08;0.80;;;23.90;50.70;;;;;;5013162;28;19909;-68
2022/06/03 14:03:20;;;;;;;1.35;0.63;;;23.90;51.90;;;;;;5013817;28;20034;-66
2022/06/03 14:05:57;;;;;;;2.72;0.60;;;23.90;50.20;;;;;;5013405;28;20103;-66
2022/06/03 14:08:46;;;;;;;4.72;1.23;;;24.00;49.40;;;;;;5013577;28;20026;-66
2022/06/03 14:11:20;;;;;;;6.28;1.25;;;24.00;48.90;;;;;;5013247;28;20060;-67
2022/06/03 14:14:08;;;;;;;1.73;0.60;;;24.00;48.90;;;;;;5013708;28;20502;-68
2022/06/03 14:16:49;;;;;;;1.63;1.02;;;24.10;49.30;;;;;;5013220;28;20028;-67
2022/06/03 14:19:17;;;;;;;5.10;1.23;;;24.10;47.80;;;;;;5013111;28;20387;-71
2022/06/03 14:21:47;;;;;;;1.73;0.90;;;24.10;47.90;;;;;;5013058;28;20049;-70
2022/06/03 14:24:29;;;;;;;2.05;0.85;;;24.10;48.20;;;;;;5011542;28;20652;-68
2022/06/03 14:27:12;;;;;;;1.85;1.25;;;24.10;48.40;;;;;;5013523;28;20610;-68
2022/06/03 14:30:01;;;;;;;1.60;0.80;;;24.10;49.30;;;;;;5010519;28;20521;-69